createdAt,value
2023-08-06T00:00:21.074Z,3.000000
2023-08-06T00:30:16.746Z,1.000000
2023-08-06T01:00:20.172Z,2.000000
2023-08-06T01:10:23.238Z,1.000000
2023-08-06T01:15:20.199Z,1.000000
2023-08-06T02:10:52.081Z,0.000000
2023-08-06T02:15:17.260Z,0.000000
2023-08-06T02:20:17.090Z,0.000000
2023-08-06T02:25:17.111Z,0.000000
2023-08-06T03:20:17.208Z,0.000000
2023-08-06T03:25:17.293Z,0.000000
2023-08-06T03:30:17.218Z,3.000000
2023-08-06T03:35:17.312Z,3.000000
2023-08-06T03:40:17.295Z,1.000000
2023-08-06T03:45:17.371Z,0.000000
2023-08-06T03:50:17.231Z,0.000000
2023-08-06T03:55:17.498Z,1.000000
2023-08-06T04:00:16.424Z,1.000000
2023-08-06T04:05:16.296Z,1.000000
2023-08-06T04:10:16.473Z,1.000000
2023-08-06T04:15:16.341Z,1.000000
2023-08-06T04:30:16.661Z,0.000000
2023-08-06T04:35:16.391Z,0.000000
2023-08-06T04:40:16.311Z,1.000000
2023-08-06T04:45:16.474Z,0.000000
2023-08-06T04:50:17.512Z,0.000000
2023-08-06T04:55:16.491Z,0.000000
2023-08-06T05:00:16.426Z,0.000000
2023-08-06T05:05:16.463Z,0.000000
2023-08-06T05:10:16.568Z,0.000000
2023-08-06T05:15:16.489Z,1.000000
2023-08-06T05:20:16.481Z,1.000000
2023-08-06T05:25:16.601Z,0.000000
2023-08-06T05:30:16.528Z,0.000000
2023-08-06T05:35:16.513Z,0.000000
2023-08-06T05:40:16.642Z,0.000000
2023-08-06T05:45:16.557Z,0.000000
2023-08-06T05:50:16.578Z,0.000000
2023-08-06T05:55:16.519Z,1.000000
2023-08-06T06:00:16.572Z,0.000000
2023-08-06T06:05:16.647Z,0.000000
2023-08-06T06:10:16.801Z,1.000000
2023-08-06T06:15:16.659Z,1.000000
2023-08-06T06:20:16.714Z,0.000000
2023-08-06T06:25:16.613Z,0.000000
2023-08-06T06:30:16.614Z,0.000000
2023-08-06T06:35:16.680Z,1.000000
2023-08-06T06:40:16.703Z,1.000000
2023-08-06T06:45:16.758Z,0.000000
2023-08-06T06:50:16.901Z,0.000000
2023-08-06T06:55:16.698Z,0.000000
2023-08-06T07:00:16.724Z,1.000000
2023-08-06T07:05:16.756Z,0.000000
2023-08-06T07:10:16.770Z,0.000000
2023-08-06T07:15:16.819Z,0.000000
2023-08-06T07:20:16.939Z,0.000000
2023-08-06T07:25:16.889Z,0.000000
2023-08-06T07:30:16.965Z,0.000000
2023-08-06T07:35:16.783Z,0.000000
2023-08-06T07:40:16.843Z,0.000000
2023-08-06T07:45:16.772Z,0.000000
2023-08-06T07:50:17.032Z,0.000000
2023-08-06T07:55:16.846Z,0.000000
2023-08-06T08:00:17.029Z,0.000000
2023-08-06T08:05:16.999Z,0.000000
2023-08-06T08:10:16.913Z,0.000000
2023-08-06T08:15:16.908Z,0.000000
2023-08-06T08:20:17.132Z,0.000000
2023-08-06T08:25:16.868Z,0.000000
2023-08-06T08:30:17.035Z,0.000000
2023-08-06T08:35:16.911Z,0.000000
2023-08-06T08:40:16.945Z,0.000000
2023-08-06T08:45:16.979Z,0.000000
2023-08-06T08:50:17.812Z,0.000000
2023-08-06T08:55:16.921Z,0.000000
2023-08-06T09:00:17.150Z,0.000000
2023-08-06T09:05:17.006Z,0.000000
2023-08-06T09:10:16.990Z,0.000000
2023-08-06T09:15:17.016Z,2.000000
2023-08-06T09:20:17.035Z,0.000000
2023-08-06T09:25:17.045Z,0.000000
2023-08-06T09:30:17.076Z,0.000000
2023-08-06T09:35:17.050Z,1.000000
2023-08-06T09:40:17.097Z,0.000000
2023-08-06T09:45:17.144Z,0.000000
2023-08-06T09:50:17.091Z,0.000000
2023-08-06T09:55:17.221Z,1.000000
2023-08-06T10:00:17.176Z,0.000000
2023-08-06T10:05:17.142Z,0.000000
2023-08-06T10:10:17.169Z,0.000000
2023-08-06T10:15:17.112Z,0.000000
2023-08-06T10:20:17.179Z,0.000000
2023-08-06T10:25:17.285Z,0.000000
2023-08-06T10:30:17.198Z,0.000000
2023-08-06T10:35:17.239Z,0.000000
2023-08-06T10:40:17.325Z,1.000000
2023-08-06T10:45:17.325Z,1.000000
2023-08-06T10:50:17.210Z,0.000000
2023-08-06T10:55:17.302Z,1.000000
2023-08-06T11:00:17.525Z,0.000000
2023-08-06T11:05:17.548Z,1.000000
2023-08-06T11:10:17.299Z,0.000000
2023-08-06T11:15:17.445Z,0.000000
2023-08-06T11:20:18.124Z,2.000000
2023-08-06T11:25:17.348Z,1.000000
2023-08-06T11:30:17.453Z,1.000000
2023-08-06T11:35:17.522Z,1.000000
2023-08-06T11:40:17.439Z,1.000000
2023-08-06T11:45:17.452Z,2.000000
2023-08-06T11:50:17.453Z,2.000000
2023-08-06T11:55:18.201Z,2.000000
2023-08-06T12:00:17.380Z,2.000000
2023-08-06T12:05:17.392Z,1.000000
2023-08-06T12:10:17.493Z,1.000000
2023-08-06T12:15:17.384Z,1.000000
2023-08-06T12:20:17.576Z,2.000000
2023-08-06T12:25:15.497Z,2.000000
2023-08-06T12:30:15.694Z,2.000000
2023-08-06T12:35:15.643Z,3.000000
2023-08-06T12:40:34.935Z,4.000000
2023-08-06T12:45:15.501Z,3.000000
2023-08-06T12:50:16.542Z,3.000000
2023-08-06T12:55:15.532Z,3.000000
2023-08-06T13:00:15.564Z,3.000000
2023-08-06T13:05:15.620Z,3.000000
2023-08-06T13:10:15.615Z,3.000000
2023-08-06T13:15:15.810Z,3.000000
2023-08-06T13:20:17.238Z,2.000000
2023-08-06T13:25:15.932Z,2.000000
2023-08-06T13:30:15.557Z,1.000000
2023-08-06T13:35:15.639Z,1.000000
2023-08-06T13:40:15.575Z,2.000000
2023-08-06T13:45:15.889Z,3.000000
2023-08-06T13:50:15.773Z,3.000000
2023-08-06T13:55:16.248Z,2.000000
2023-08-06T14:00:15.643Z,0.000000
2023-08-06T14:05:15.630Z,0.000000
2023-08-06T14:10:15.736Z,0.000000
2023-08-06T14:15:15.830Z,0.000000
2023-08-06T14:20:15.741Z,1.000000
2023-08-06T14:25:15.658Z,2.000000
2023-08-06T14:30:15.769Z,2.000000
2023-08-06T14:35:15.798Z,3.000000
2023-08-06T14:40:15.750Z,3.000000
2023-08-06T14:45:15.862Z,3.000000
2023-08-06T14:50:15.777Z,3.000000
2023-08-06T14:55:15.822Z,2.000000
2023-08-06T15:00:15.953Z,2.000000
2023-08-06T15:05:15.897Z,1.000000
2023-08-06T15:10:26.727Z,2.000000
2023-08-06T15:15:15.924Z,3.000000
2023-08-06T15:20:15.850Z,2.000000
2023-08-06T15:25:15.906Z,3.000000
2023-08-06T15:30:15.866Z,3.000000
2023-08-06T15:35:16.133Z,3.000000
2023-08-06T15:40:15.841Z,3.000000
2023-08-06T15:45:15.950Z,4.000000
2023-08-06T15:50:15.963Z,3.000000
2023-08-06T15:55:15.886Z,5.000000
2023-08-06T16:00:16.012Z,4.000000
2023-08-06T16:05:15.974Z,3.000000
2023-08-06T16:10:15.905Z,5.000000
2023-08-06T16:20:16.267Z,3.000000
2023-08-06T16:25:16.247Z,1.000000
2023-08-06T16:30:16.114Z,3.000000
2023-08-06T16:35:16.085Z,8.000000
2023-08-06T16:40:15.971Z,6.000000
2023-08-06T16:45:16.024Z,3.000000
2023-08-06T16:50:16.024Z,5.000000
2023-08-06T16:55:16.719Z,8.000000
2023-08-06T17:00:16.103Z,8.000000
2023-08-06T17:05:16.149Z,5.000000
2023-08-06T17:10:16.133Z,2.000000
2023-08-06T17:15:16.098Z,3.000000
2023-08-06T17:20:16.133Z,2.000000
2023-08-06T17:25:16.203Z,3.000000
2023-08-06T17:30:16.246Z,4.000000
2023-08-06T17:35:16.398Z,8.000000
2023-08-06T17:40:16.154Z,3.000000
2023-08-06T17:45:16.330Z,6.000000
2023-08-06T17:50:16.143Z,7.000000
2023-08-06T17:55:16.197Z,6.000000
2023-08-06T18:00:16.130Z,7.000000
2023-08-06T18:05:16.518Z,4.000000
2023-08-06T18:10:16.224Z,3.000000
2023-08-06T18:15:16.465Z,3.000000
2023-08-06T18:20:16.280Z,3.000000
2023-08-06T18:25:16.312Z,7.000000
2023-08-06T18:30:16.318Z,6.000000
2023-08-06T18:35:16.417Z,6.000000
2023-08-06T18:40:16.490Z,4.000000
2023-08-06T18:45:16.365Z,3.000000
2023-08-06T18:50:16.484Z,4.000000
2023-08-06T18:55:16.302Z,3.000000
2023-08-06T19:00:16.888Z,6.000000
2023-08-06T19:05:16.350Z,5.000000
2023-08-06T19:10:16.421Z,4.000000
2023-08-06T19:15:17.812Z,4.000000
2023-08-06T19:20:16.386Z,6.000000
2023-08-06T19:25:16.418Z,8.000000
2023-08-06T19:30:16.565Z,8.000000
2023-08-06T19:35:17.456Z,9.000000
2023-08-06T19:40:16.396Z,8.000000
2023-08-06T19:45:16.574Z,12.000000
2023-08-06T19:50:16.409Z,14.000000
2023-08-06T19:55:16.515Z,12.000000
2023-08-06T20:00:16.580Z,13.000000
2023-08-06T20:05:16.415Z,10.000000
2023-08-06T20:10:16.519Z,8.000000
2023-08-06T20:15:16.474Z,8.000000
2023-08-06T20:20:16.411Z,9.000000
2023-08-06T20:25:16.565Z,11.000000
2023-08-06T20:30:16.562Z,11.000000
2023-08-06T20:35:16.552Z,11.000000
2023-08-06T20:40:16.622Z,12.000000
2023-08-06T20:45:16.709Z,11.000000
2023-08-06T20:50:16.588Z,12.000000
2023-08-06T20:55:16.638Z,12.000000
2023-08-06T21:00:16.592Z,11.000000
2023-08-06T21:05:16.748Z,13.000000
2023-08-06T21:10:16.728Z,11.000000
2023-08-06T21:15:16.692Z,10.000000
2023-08-06T21:20:16.682Z,9.000000
2023-08-06T21:25:16.661Z,11.000000
2023-08-06T21:30:16.721Z,12.000000
2023-08-06T21:35:16.697Z,12.000000
2023-08-06T21:40:16.906Z,12.000000
2023-08-06T21:45:16.747Z,11.000000
2023-08-06T21:50:16.726Z,12.000000
2023-08-06T21:55:16.772Z,12.000000
2023-08-06T22:00:16.932Z,12.000000
2023-08-06T22:05:16.623Z,11.000000
2023-08-06T22:10:16.966Z,11.000000
2023-08-06T22:15:16.783Z,9.000000
2023-08-06T22:20:16.785Z,9.000000
2023-08-06T22:25:16.882Z,10.000000
2023-08-06T22:30:16.852Z,10.000000
2023-08-06T22:35:16.814Z,9.000000
2023-08-06T22:40:17.101Z,10.000000
2023-08-06T22:45:16.978Z,9.000000
2023-08-06T22:50:16.891Z,8.000000
2023-08-06T22:55:40.618Z,7.000000
2023-08-06T23:00:17.122Z,6.000000
2023-08-06T23:05:17.042Z,5.000000
2023-08-06T23:10:17.003Z,4.000000
2023-08-06T23:15:17.731Z,4.000000
2023-08-06T23:20:16.960Z,6.000000
2023-08-06T23:25:17.056Z,7.000000
2023-08-06T23:30:17.168Z,7.000000
2023-08-06T23:35:17.130Z,6.000000
2023-08-06T23:40:17.108Z,4.000000
2023-08-06T23:45:16.974Z,4.000000
2023-08-06T23:50:17.106Z,4.000000
2023-08-06T23:55:17.148Z,4.000000
